Time;durP1;ratioP1;P1;durP2;ratioP2;P2;SDS_P1;SDS_P2;PMS_P1;PMS_P2;Temp;Humidity;BMP_temperature;BMP_pressure;BME280_temperature;BME280_humidity;BME280_pressure;Samples;Min_cycle;Max_cycle;Signal;HPM_P1;HPM_P2
2021/04/23 00:02:15;;;;;;;;;;;6.60;59.70;;;;;;4974130;28;19910;-90
2021/04/23 00:04:41;;;;;;;;;;;6.60;59.70;;;;;;4977466;28;20361;-91
2021/04/23 00:07:06;;;;;;;;;;;6.60;59.70;;;;;;4984602;28;19910;-91
2021/04/23 00:09:33;;;;;;;;;;;6.60;59.80;;;;;;4980197;28;19945;-91
2021/04/23 00:12:04;;;;;;;;;;;6.60;59.90;;;;;;4978834;28;19917;-90
2021/04/23 00:14:33;;;;;;;;;;;6.50;59.80;;;;;;4985666;28;19913;-90
2021/04/23 00:16:58;;;;;;;;;;;6.50;60.00;;;;;;4979213;28;20080;-91
2021/04/23 00:19:25;;;;;;;;;;;6.40;60.10;;;;;;4979428;28;19917;-90
2021/04/23 00:21:51;;;;;;;;;;;6.40;60.20;;;;;;4984000;28;19960;-90
2021/04/23 00:24:17;;;;;;;;;;;6.40;60.30;;;;;;4974937;28;19914;-90
2021/04/23 00:26:43;;;;;;;;;;;6.40;60.30;;;;;;4970480;28;19916;-90
2021/04/23 00:29:09;;;;;;;;;;;6.40;60.30;;;;;;4980884;28;19976;-91
2021/04/23 00:31:35;;;;;;;;;;;6.40;60.50;;;;;;4975816;28;19910;-91
2021/04/23 00:34:01;;;;;;;;;;;6.40;60.50;;;;;;4971875;28;20015;-90
2021/04/23 00:36:26;;;;;;;;;;;6.40;60.60;;;;;;4973947;28;19918;-89
2021/04/23 00:38:52;;;;;;;;;;;6.40;60.60;;;;;;4972568;28;19910;-89
2021/04/23 00:41:21;;;;;;;;;;;6.40;60.60;;;;;;4971805;28;19976;-89
2021/04/23 00:43:56;;;;;;;;;;;6.30;60.60;;;;;;4966571;28;20173;-89
2021/04/23 00:46:21;;;;;;;;;;;6.30;60.70;;;;;;4970170;28;19920;-89
2021/04/23 00:48:47;;;;;;;;;;;6.30;60.70;;;;;;4973617;28;19918;-89
2021/04/23 00:51:14;;;;;;;;;;;6.20;60.70;;;;;;4973809;28;20195;-89
2021/04/23 00:53:42;;;;;;;;;;;6.20;60.80;;;;;;4969750;28;19910;-90
2021/04/23 00:56:10;;;;;;;;;;;6.20;60.90;;;;;;4973307;28;19906;-89
2021/04/23 00:58:35;;;;;;;;;;;6.20;61.00;;;;;;4974065;28;19913;-90
2021/04/23 01:01:03;;;;;;;;;;;6.20;61.00;;;;;;4974116;28;19957;-90
2021/04/23 01:03:29;;;;;;;;;;;6.10;61.00;;;;;;4969244;28;19994;-90
2021/04/23 01:05:55;;;;;;;;;;;6.10;61.10;;;;;;4973913;28;20021;-90
2021/04/23 01:08:25;;;;;;;;;;;6.10;61.20;;;;;;4961418;28;19910;-89
2021/04/23 01:10:51;;;;;;;;;;;6.10;61.20;;;;;;4961399;28;20333;-88
2021/04/23 01:13:17;;;;;;;;;;;6.10;61.30;;;;;;4967029;28;19915;-89
2021/04/23 01:15:42;;;;;;;;;;;6.10;61.30;;;;;;4972709;28;19965;-88
2021/04/23 01:18:08;;;;;;;;;;;6.00;61.20;;;;;;4972297;28;19925;-88
2021/04/23 01:20:33;;;;;;;;;;;6.10;61.30;;;;;;4971938;28;19910;-88
2021/04/23 01:22:59;;;;;;;;;;;6.00;61.30;;;;;;4972150;28;19964;-88
2021/04/23 01:25:24;;;;;;;;;;;6.10;61.40;;;;;;4973487;28;19906;-89
2021/04/23 01:27:50;;;;;;;;;;;6.10;61.50;;;;;;4967802;28;20353;-90
2021/04/23 01:30:17;;;;;;;;;;;6.10;61.50;;;;;;4966458;28;19914;-88
2021/04/23 01:32:43;;;;;;;;;;;6.10;61.60;;;;;;4968616;28;19994;-88
2021/04/23 01:35:11;;;;;;;;;;;6.00;61.50;;;;;;4971946;28;19910;-88
2021/04/23 01:37:37;;;;;;;;;;;6.00;61.60;;;;;;4972855;28;19910;-89
2021/04/23 01:40:04;;;;;;;;;;;6.00;61.50;;;;;;4969173;28;19913;-88
2021/04/23 01:42:29;;;;;;;;;;;5.90;62.20;;;;;;4970798;28;19953;-88
2021/04/23 01:44:57;;;;;;;;;;;5.90;61.60;;;;;;4970689;28;19945;-89
2021/04/23 01:47:24;;;;;;;;;;;5.90;61.70;;;;;;4969302;28;19921;-90
2021/04/23 01:49:49;;;;;;;;;;;5.90;61.70;;;;;;4971704;28;19918;-89
2021/04/23 01:52:15;;;;;;;;;;;5.90;61.80;;;;;;4971578;28;20275;-89
2021/04/23 01:54:40;;;;;;;;;;;5.90;61.80;;;;;;4970852;28;19906;-89
2021/04/23 01:57:06;;;;;;;;;;;5.80;61.70;;;;;;4976490;28;19914;-88
2021/04/23 01:59:32;;;;;;;;;;;5.80;61.90;;;;;;4968443;28;19921;-89
2021/04/23 02:01:58;;;;;;;;;;;5.80;61.90;;;;;;4969819;28;19917;-91
2021/04/23 02:04:24;;;;;;;;;;;5.80;61.90;;;;;;4954989;28;19930;-92
2021/04/23 02:06:50;;;;;;;;;;;5.70;61.90;;;;;;4971851;28;19906;-92
2021/04/23 02:09:16;;;;;;;;;;;5.70;61.90;;;;;;4969517;28;19918;-91
2021/04/23 02:11:43;;;;;;;;;;;5.70;62.00;;;;;;4974987;28;19957;-90
2021/04/23 02:14:08;;;;;;;;;;;5.70;62.00;;;;;;4970726;28;19917;-88
2021/04/23 02:16:34;;;;;;;;;;;5.60;62.00;;;;;;4971691;28;19993;-88
2021/04/23 02:19:00;;;;;;;;;;;5.60;62.00;;;;;;4956827;28;19910;-89
2021/04/23 02:21:25;;;;;;;;;;;5.60;62.10;;;;;;4961119;28;20204;-88
2021/04/23 02:23:51;;;;;;;;;;;5.50;62.10;;;;;;4969912;28;20260;-88
2021/04/23 02:26:18;;;;;;;;;;;5.50;62.20;;;;;;4970980;28;20348;-88
2021/04/23 02:28:43;;;;;;;;;;;5.50;62.20;;;;;;4972305;28;19921;-89
2021/04/23 02:31:14;;;;;;;;;;;5.50;62.30;;;;;;4971077;28;19918;-89
2021/04/23 02:33:40;;;;;;;;;;;5.40;62.30;;;;;;4959284;28;20262;-89
2021/04/23 02:36:06;;;;;;;;;;;5.40;62.50;;;;;;4967077;28;20008;-92
2021/04/23 02:38:31;;;;;;;;;;;5.40;62.50;;;;;;4969195;28;19953;-94
2021/04/23 02:40:58;;;;;;;;;;;5.40;62.50;;;;;;4981066;28;20009;-92
2021/04/23 02:43:25;;;;;;;;;;;5.30;62.60;;;;;;4972938;28;20285;-92
2021/04/23 02:45:52;;;;;;;;;;;5.30;62.80;;;;;;4971736;28;19921;-93
2021/04/23 02:48:18;;;;;;;;;;;5.20;62.70;;;;;;4969368;28;19910;-92
2021/04/23 02:50:46;;;;;;;;;;;5.20;62.80;;;;;;4968674;28;19934;-90
2021/04/23 02:53:13;;;;;;;;;;;5.20;62.90;;;;;;4969873;28;19910;-90
2021/04/23 02:55:39;;;;;;;;;;;5.10;62.90;;;;;;4965869;28;19910;-91
2021/04/23 02:58:06;;;;;;;;;;;5.10;63.00;;;;;;4962263;28;20285;-90
2021/04/23 03:00:34;;;;;;;;;;;5.10;63.10;;;;;;4952468;28;20361;-91
2021/04/23 03:03:00;;;;;;;;;;;5.00;63.10;;;;;;4960802;28;19964;-90
2021/04/23 03:05:26;;;;;;;;;;;5.00;63.10;;;;;;4970533;28;19981;-90
2021/04/23 03:07:53;;;;;;;;;;;4.90;63.10;;;;;;4969279;28;19925;-91
2021/04/23 03:10:23;;;;;;;;;;;4.90;63.10;;;;;;4968982;28;20349;-91
2021/04/23 03:12:49;;;;;;;;;;;4.80;63.30;;;;;;4982113;28;20009;-91
2021/04/23 03:15:15;;;;;;;;;;;4.80;63.40;;;;;;4972003;28;20451;-91
2021/04/23 03:17:41;;;;;;;;;;;4.80;63.50;;;;;;4971108;28;20000;-92
2021/04/23 03:20:11;;;;;;;;;;;4.70;63.50;;;;;;4956989;28;19933;-90
2021/04/23 03:22:37;;;;;;;;;;;4.70;63.50;;;;;;4972040;28;19910;-89
2021/04/23 03:25:03;;;;;;;;;;;4.60;63.50;;;;;;4972802;28;20186;-90
2021/04/23 03:27:28;;;;;;;;;;;4.60;63.60;;;;;;4972053;28;19957;-90
2021/04/23 03:29:54;;;;;;;;;;;4.60;63.60;;;;;;4971626;28;19964;-90
2021/04/23 03:32:19;;;;;;;;;;;4.60;63.70;;;;;;4967877;28;20360;-89
2021/04/23 03:34:45;;;;;;;;;;;4.60;63.70;;;;;;4967977;28;19910;-88
2021/04/23 03:37:10;;;;;;;;;;;4.60;63.90;;;;;;4971553;28;20001;-89
2021/04/23 03:39:36;;;;;;;;;;;4.60;63.90;;;;;;4970071;28;20396;-89
2021/04/23 03:42:01;;;;;;;;;;;4.60;63.90;;;;;;4968738;28;19945;-89
2021/04/23 03:44:26;;;;;;;;;;;4.60;63.90;;;;;;4968389;28;19921;-89
2021/04/23 03:46:53;;;;;;;;;;;4.60;64.00;;;;;;4970808;28;19911;-89
2021/04/23 03:49:19;;;;;;;;;;;4.50;64.00;;;;;;4965089;28;20364;-89
2021/04/23 03:51:44;;;;;;;;;;;4.50;64.10;;;;;;4970482;28;19910;-89
2021/04/23 03:54:10;;;;;;;;;;;4.50;64.20;;;;;;4960877;28;20331;-89
2021/04/23 03:56:35;;;;;;;;;;;4.50;64.30;;;;;;4980389;28;19926;-92
2021/04/23 03:59:01;;;;;;;;;;;4.50;64.30;;;;;;4960131;28;19910;-92
2021/04/23 04:01:26;;;;;;;;;;;4.50;64.30;;;;;;4966552;28;19953;-93
2021/04/23 04:03:53;;;;;;;;;;;4.50;64.30;;;;;;4978277;28;19910;-91
2021/04/23 04:06:18;;;;;;;;;;;4.50;64.30;;;;;;4975253;28;19921;-92
2021/04/23 04:08:44;;;;;;;;;;;4.50;64.20;;;;;;4958816;28;19911;-92
2021/04/23 04:11:10;;;;;;;;;;;4.50;64.30;;;;;;4961453;28;19962;-91
2021/04/23 04:13:36;;;;;;;;;;;4.50;64.30;;;;;;4979944;28;20288;-92
2021/04/23 04:16:02;;;;;;;;;;;4.50;64.30;;;;;;4974709;28;19913;-92
2021/04/23 04:18:28;;;;;;;;;;;4.50;64.40;;;;;;4966157;28;19916;-91
2021/04/23 04:20:54;;;;;;;;;;;4.50;64.40;;;;;;4973702;28;20148;-91
2021/04/23 04:23:20;;;;;;;;;;;4.50;64.80;;;;;;4969666;28;19917;-90
2021/04/23 04:25:47;;;;;;;;;;;4.50;64.80;;;;;;4968339;28;20199;-93
2021/04/23 04:28:13;;;;;;;;;;;4.60;65.10;;;;;;4963775;28;19926;-93
2021/04/23 04:30:39;;;;;;;;;;;4.60;65.20;;;;;;4962263;28;19919;-93
2021/04/23 04:33:05;;;;;;;;;;;4.60;65.20;;;;;;4970668;28;19909;-91
2021/04/23 04:35:31;;;;;;;;;;;4.70;65.20;;;;;;4974659;28;19954;-90
2021/04/23 04:37:57;;;;;;;;;;;4.70;65.20;;;;;;4974809;28;19910;-90
2021/04/23 04:40:23;;;;;;;;;;;4.80;65.10;;;;;;4974620;28;19910;-90
2021/04/23 04:42:48;;;;;;;;;;;4.80;65.10;;;;;;4968241;28;19957;-90
2021/04/23 04:45:15;;;;;;;;;;;4.90;65.10;;;;;;4967013;28;19957;-91
2021/04/23 04:47:41;;;;;;;;;;;4.90;65.10;;;;;;4971221;28;19920;-92
2021/04/23 04:50:10;;;;;;;;;;;5.00;65.10;;;;;;4970200;28;20304;-91
2021/04/23 04:52:36;;;;;;;;;;;5.00;65.30;;;;;;4973574;28;19918;-90
2021/04/23 04:55:02;;;;;;;;;;;5.00;65.50;;;;;;4974302;28;20150;-92
2021/04/23 04:57:28;;;;;;;;;;;5.10;65.50;;;;;;4961090;28;19910;-91
2021/04/23 04:59:53;;;;;;;;;;;5.10;65.50;;;;;;4972287;28;20435;-91
2021/04/23 05:02:19;;;;;;;;;;;5.20;65.50;;;;;;4977124;28;19950;-93
2021/04/23 05:04:44;;;;;;;;;;;5.20;65.40;;;;;;4995201;23;19970;-95
2021/04/23 05:07:10;;;;;;;;;;;5.30;65.20;;;;;;4976407;28;20173;-96
2021/04/23 05:09:35;;;;;;;;;;;5.40;65.20;;;;;;4978774;28;19966;-96
2021/04/23 05:12:01;;;;;;;;;;;5.40;65.20;;;;;;4977847;28;19917;-96
2021/04/23 05:14:26;;;;;;;;;;;5.50;65.10;;;;;;4978008;28;19957;-95
2021/04/23 05:16:52;;;;;;;;;;;5.60;65.10;;;;;;4973568;28;19907;-96
2021/04/23 05:19:18;;;;;;;;;;;5.60;65.00;;;;;;4962146;28;19935;-95
2021/04/23 05:21:43;;;;;;;;;;;5.80;65.10;;;;;;4955073;28;19937;-96
2021/04/23 05:24:09;;;;;;;;;;;5.80;65.00;;;;;;5107323;23;19922;-96
2021/04/23 05:26:34;;;;;;;;;;;5.90;64.90;;;;;;5240307;23;19933;-96
2021/04/23 05:31:53;;;;;;;;;;;6.00;64.90;;;;;;5461437;23;19901;-96
2021/04/23 05:34:19;;;;;;;;;;;6.10;64.90;;;;;;4976143;28;19976;-92
2021/04/23 05:39:20;;;;;;;;;;;6.20;64.90;;;;;;5550177;23;19922;-94
2021/04/23 05:41:45;;;;;;;;;;;6.20;64.70;;;;;;4968880;28;19910;-95
2021/04/23 05:44:13;;;;;;;;;;;6.30;64.80;;;;;;4977318;28;19962;-96
2021/04/23 05:46:38;;;;;;;;;;;6.40;64.80;;;;;;4984952;28;19914;-94
2021/04/23 05:49:04;;;;;;;;;;;6.40;64.90;;;;;;4979244;28;20016;-93
2021/04/23 05:51:30;;;;;;;;;;;6.40;64.80;;;;;;4979511;28;20009;-95
2021/04/23 05:53:55;;;;;;;;;;;6.40;64.80;;;;;;4979808;28;19920;-93
2021/04/23 05:56:21;;;;;;;;;;;6.40;65.00;;;;;;4977221;28;19916;-93
2021/04/23 05:58:46;;;;;;;;;;;6.40;65.10;;;;;;4973364;28;19914;-93
2021/04/23 06:01:12;;;;;;;;;;;6.50;65.40;;;;;;4976411;28;20040;-94
2021/04/23 06:03:37;;;;;;;;;;;6.50;65.50;;;;;;4976059;28;19917;-93
2021/04/23 06:06:03;;;;;;;;;;;6.60;65.40;;;;;;4980290;28;19993;-93
2021/04/23 06:08:28;;;;;;;;;;;6.60;65.40;;;;;;4970635;28;19918;-94
2021/04/23 06:10:54;;;;;;;;;;;6.60;65.50;;;;;;4990659;28;19944;-96
2021/04/23 06:13:19;;;;;;;;;;;6.70;65.30;;;;;;4986549;28;19914;-96
2021/04/23 06:15:46;;;;;;;;;;;6.80;65.20;;;;;;4983148;28;19946;-96
2021/04/23 06:18:11;;;;;;;;;;;6.90;65.10;;;;;;4972151;28;19913;-96
2021/04/23 06:20:37;;;;;;;;;;;7.00;65.00;;;;;;4972969;28;19917;-96
2021/04/23 06:23:03;;;;;;;;;;;7.20;65.00;;;;;;4973464;28;19992;-96
2021/04/23 06:25:29;;;;;;;;;;;7.30;64.80;;;;;;4973313;28;19906;-96
2021/04/23 06:27:55;;;;;;;;;;;7.40;64.50;;;;;;4970942;28;20028;-96
2021/04/23 06:30:22;;;;;;;;;;;7.40;64.50;;;;;;4964785;28;19924;-96
2021/04/23 06:32:48;;;;;;;;;;;7.50;64.40;;;;;;4972772;28;20297;-96
2021/04/23 06:35:18;;;;;;;;;;;7.60;64.30;;;;;;4985787;28;19913;-96
2021/04/23 06:37:44;;;;;;;;;;;7.70;64.20;;;;;;4968698;28;19918;-95
2021/04/23 06:40:11;;;;;;;;;;;7.70;64.00;;;;;;4972268;28;19914;-94
2021/04/23 06:42:37;;;;;;;;;;;7.80;64.00;;;;;;4975575;28;19917;-92
2021/04/23 06:45:04;;;;;;;;;;;8.10;63.70;;;;;;4980754;28;19914;-93
2021/04/23 06:47:33;;;;;;;;;;;8.20;63.40;;;;;;4967239;28;19914;-95
2021/04/23 06:49:59;;;;;;;;;;;8.20;63.20;;;;;;4964819;28;19917;-93
2021/04/23 06:52:24;;;;;;;;;;;8.20;63.30;;;;;;4968199;28;20001;-96
2021/04/23 06:54:50;;;;;;;;;;;8.30;63.30;;;;;;4973674;28;20065;-95
2021/04/23 06:57:16;;;;;;;;;;;9.10;62.40;;;;;;4978577;28;19910;-94
2021/04/23 06:59:41;;;;;;;;;;;9.30;61.40;;;;;;4970234;28;19951;-92
2021/04/23 07:02:07;;;;;;;;;;;9.30;61.00;;;;;;4968061;28;19953;-92
2021/04/23 07:04:33;;;;;;;;;;;9.40;61.00;;;;;;4970349;28;19936;-94
2021/04/23 07:06:58;;;;;;;;;;;9.40;60.90;;;;;;4972418;28;19917;-95
2021/04/23 07:09:24;;;;;;;;;;;9.30;61.00;;;;;;4973103;28;19924;-95
2021/04/23 07:11:49;;;;;;;;;;;9.30;61.20;;;;;;4979529;28;19957;-94
2021/04/23 07:14:15;;;;;;;;;;;9.20;61.40;;;;;;4979742;28;20418;-94
2021/04/23 07:16:40;;;;;;;;;;;9.20;61.60;;;;;;4976081;28;19921;-93
2021/04/23 07:19:06;;;;;;;;;;;9.20;61.60;;;;;;4971983;28;19910;-93
2021/04/23 07:21:33;;;;;;;;;;;9.50;61.50;;;;;;4973773;28;19969;-94
2021/04/23 07:23:59;;;;;;;;;;;9.80;60.80;;;;;;4973623;28;19914;-95
2021/04/23 07:26:24;;;;;;;;;;;10.00;60.10;;;;;;4997857;28;19922;-91
2021/04/23 07:28:49;;;;;;;;;;;9.90;60.30;;;;;;4973460;28;20021;-95
2021/04/23 07:31:15;;;;;;;;;;;10.00;60.20;;;;;;4977042;28;19941;-93
2021/04/23 07:33:40;;;;;;;;;;;9.90;60.30;;;;;;4975258;28;20039;-94
2021/04/23 07:36:06;;;;;;;;;;;9.80;60.70;;;;;;4972309;28;20292;-94
2021/04/23 07:38:32;;;;;;;;;;;9.80;60.90;;;;;;4971510;28;19925;-94
2021/04/23 07:40:57;;;;;;;;;;;9.80;60.90;;;;;;4989752;28;19924;-94
2021/04/23 07:43:23;;;;;;;;;;;10.00;60.80;;;;;;4978420;28;20308;-95
2021/04/23 07:45:49;;;;;;;;;;;11.50;58.50;;;;;;4994703;28;19910;-94
2021/04/23 07:48:14;;;;;;;;;;;12.40;55.70;;;;;;4979674;28;20349;-96
2021/04/23 07:50:40;;;;;;;;;;;11.70;54.60;;;;;;4984423;28;20032;-93
2021/04/23 07:53:06;;;;;;;;;;;11.30;55.60;;;;;;5000861;28;19936;-94
2021/04/23 07:55:31;;;;;;;;;;;11.20;56.20;;;;;;4991837;28;19910;-95
2021/04/23 07:57:58;;;;;;;;;;;11.30;56.00;;;;;;4996387;28;19917;-95
2021/04/23 08:00:24;;;;;;;;;;;11.30;55.70;;;;;;4984395;28;19918;-94
2021/04/23 08:02:50;;;;;;;;;;;11.50;55.50;;;;;;4990864;28;19933;-96
2021/04/23 08:05:17;;;;;;;;;;;11.10;55.40;;;;;;4986913;28;20005;-96
2021/04/23 08:07:44;;;;;;;;;;;10.90;55.90;;;;;;4981321;28;19910;-96
2021/04/23 08:13:23;;;;;;;;;;;10.50;56.60;;;;;;4991786;28;19921;-96
2021/04/23 08:18:25;;;;;;;;;;;10.60;56.60;;;;;;5446276;23;19922;-96
2021/04/23 08:23:26;;;;;;;;;;;10.70;56.00;;;;;;5821225;23;19933;-93
2021/04/23 08:25:56;;;;;;;;;;;10.60;56.10;;;;;;4978923;28;19914;-92
2021/04/23 08:28:22;;;;;;;;;;;10.70;56.00;;;;;;4980636;28;19961;-91
2021/04/23 08:30:48;;;;;;;;;;;10.70;55.70;;;;;;4977191;28;19925;-92
2021/04/23 08:33:13;;;;;;;;;;;10.80;55.90;;;;;;4984078;28;19917;-92
2021/04/23 08:35:41;;;;;;;;;;;10.90;56.20;;;;;;4984982;28;20356;-94
2021/04/23 08:38:06;;;;;;;;;;;11.00;55.40;;;;;;4987402;28;19909;-95
2021/04/23 08:45:42;;;;;;;;;;;11.40;54.50;;;;;;5359977;23;19953;-93
2021/04/23 08:48:08;;;;;;;;;;;11.50;54.10;;;;;;4978154;28;19918;-96
2021/04/23 09:06:21;;;;;;;;;;;11.50;53.60;;;;;;5006930;23;19910;-96
2021/04/23 09:14:06;;;;;;;;;;;11.60;52.50;;;;;;5128714;23;19928;-96
2021/04/23 09:24:53;;;;;;;;;;;11.80;51.90;;;;;;5614112;23;19922;-96
2021/04/23 09:32:29;;;;;;;;;;;11.60;51.70;;;;;;5114885;23;19945;-95
2021/04/23 09:34:59;;;;;;;;;;;11.80;51.90;;;;;;4986484;28;19917;-96
2021/04/23 09:37:26;;;;;;;;;;;11.80;51.40;;;;;;5123783;23;19929;-96
2021/04/23 09:39:52;;;;;;;;;;;11.80;51.10;;;;;;5446788;23;20357;-96
2021/04/23 09:42:19;;;;;;;;;;;11.80;51.40;;;;;;4989661;28;19914;-96
2021/04/23 09:45:04;;;;;;;;;;;11.90;51.50;;;;;;4995741;28;19936;-96
2021/04/23 09:47:35;;;;;;;;;;;11.90;51.30;;;;;;4985967;28;19942;-96
2021/04/23 09:50:21;;;;;;;;;;;11.90;50.90;;;;;;4981741;28;19918;-96
2021/04/23 09:55:26;;;;;;;;;;;11.80;50.40;;;;;;5202004;23;19931;-96
2021/04/23 09:57:53;;;;;;;;;;;11.90;50.40;;;;;;5054646;23;19922;-96
2021/04/23 10:07:58;;;;;;;;;;;12.30;50.10;;;;;;5332399;23;19926;-96
2021/04/23 10:10:23;;;;;;;;;;;12.50;50.00;;;;;;4994197;28;19914;-96
2021/04/23 10:12:52;;;;;;;;;;;12.70;49.90;;;;;;5134174;23;19930;-96
2021/04/23 10:15:19;;;;;;;;;;;12.70;49.40;;;;;;4976991;28;19968;-96
2021/04/23 10:17:48;;;;;;;;;;;12.80;49.30;;;;;;4981541;28;19918;-96
2021/04/23 10:20:16;;;;;;;;;;;12.90;49.20;;;;;;5270518;23;19926;-96
2021/04/23 10:22:42;;;;;;;;;;;12.90;48.70;;;;;;4958487;28;19911;-95
2021/04/23 10:25:08;;;;;;;;;;;12.90;48.40;;;;;;4956541;28;19961;-96
2021/04/23 10:27:35;;;;;;;;;;;13.00;48.40;;;;;;4956223;28;19911;-96
2021/04/23 10:30:03;;;;;;;;;;;13.00;48.20;;;;;;4950033;28;19918;-96
2021/04/23 10:32:28;;;;;;;;;;;13.10;48.30;;;;;;4955897;28;19915;-96
2021/04/23 11:03:57;;;;;;;;;;;14.00;46.30;;;;;;4941639;29;19930;-96
2021/04/23 11:06:23;;;;;;;;;;;14.10;46.30;;;;;;5078034;23;19922;-96
2021/04/23 11:09:02;;;;;;;;;;;14.20;45.50;;;;;;4979576;28;19916;-96
2021/04/23 11:11:31;;;;;;;;;;;14.20;45.10;;;;;;4958758;29;19918;-96
2021/04/23 11:14:16;;;;;;;;;;;14.30;45.00;;;;;;4961175;28;19937;-93
2021/04/23 11:16:41;;;;;;;;;;;14.40;44.80;;;;;;4959231;28;19914;-93
2021/04/23 11:19:22;;;;;;;;;;;14.60;44.40;;;;;;4953662;28;19916;-92
2021/04/23 11:21:48;;;;;;;;;;;14.60;44.00;;;;;;4963290;28;19917;-93
2021/04/23 11:24:19;;;;;;;;;;;14.80;43.50;;;;;;4949434;28;20254;-95
2021/04/23 11:26:58;;;;;;;;;;;14.90;43.30;;;;;;4947212;28;19965;-95
2021/04/23 11:29:28;;;;;;;;;;;15.00;42.20;;;;;;4960928;28;19933;-93
2021/04/23 11:32:12;;;;;;;;;;;15.10;42.00;;;;;;4942346;28;19910;-94
2021/04/23 11:34:47;;;;;;;;;;;15.20;39.90;;;;;;4956818;28;19914;-96
2021/04/23 11:37:14;;;;;;;;;;;15.10;41.10;;;;;;4957049;28;20420;-93
2021/04/23 11:39:43;;;;;;;;;;;15.30;41.00;;;;;;4967162;28;19899;-96
2021/04/23 11:42:11;;;;;;;;;;;15.30;40.80;;;;;;4950816;28;19910;-95
2021/04/23 11:44:55;;;;;;;;;;;15.40;40.60;;;;;;4957757;28;19961;-94
2021/04/23 11:47:27;;;;;;;;;;;15.40;40.70;;;;;;4960758;28;20124;-94
2021/04/23 11:50:11;;;;;;;;;;;15.40;40.40;;;;;;4957892;28;19922;-95
2021/04/23 11:52:38;;;;;;;;;;;15.40;40.60;;;;;;4980729;28;19914;-95
2021/04/23 11:55:11;;;;;;;;;;;15.50;40.70;;;;;;4947567;28;20337;-96
2021/04/23 11:57:37;;;;;;;;;;;15.40;40.30;;;;;;4949035;28;19918;-96
2021/04/23 12:00:16;;;;;;;;;;;15.50;40.70;;;;;;4941002;28;19978;-95
2021/04/23 12:02:43;;;;;;;;;;;15.50;40.60;;;;;;4947178;28;20443;-94
2021/04/23 12:05:29;;;;;;;;;;;15.40;40.50;;;;;;4938910;28;20013;-96
2021/04/23 12:07:58;;;;;;;;;;;15.30;40.80;;;;;;4943774;28;20141;-96
2021/04/23 12:10:25;;;;;;;;;;;15.50;40.80;;;;;;4965704;28;19918;-96
2021/04/23 12:12:51;;;;;;;;;;;15.60;39.80;;;;;;4957322;28;19918;-95
2021/04/23 12:15:21;;;;;;;;;;;15.80;39.70;;;;;;4959217;28;19916;-96
2021/04/23 12:17:47;;;;;;;;;;;15.70;39.00;;;;;;4951912;28;19910;-94
2021/04/23 12:20:17;;;;;;;;;;;15.90;38.90;;;;;;4977014;28;19973;-94
2021/04/23 12:22:43;;;;;;;;;;;15.80;38.70;;;;;;4948952;28;20233;-93
2021/04/23 12:25:18;;;;;;;;;;;15.50;39.30;;;;;;4950718;28;19915;-93
2021/04/23 12:27:43;;;;;;;;;;;15.60;39.40;;;;;;4951983;28;20316;-93
2021/04/23 12:30:09;;;;;;;;;;;15.50;39.50;;;;;;4966341;28;19918;-95
2021/04/23 12:32:34;;;;;;;;;;;15.50;39.80;;;;;;4966258;28;19906;-95
2021/04/23 12:35:00;;;;;;;;;;;15.40;38.20;;;;;;4968074;28;19933;-96
2021/04/23 12:37:25;;;;;;;;;;;15.10;39.30;;;;;;4960576;28;20250;-94
2021/04/23 12:39:51;;;;;;;;;;;15.30;39.70;;;;;;4961607;28;20392;-93
2021/04/23 12:42:16;;;;;;;;;;;15.70;39.80;;;;;;4963971;28;19917;-95
2021/04/23 12:44:42;;;;;;;;;;;16.00;38.10;;;;;;4955482;28;19964;-95
2021/04/23 12:47:10;;;;;;;;;;;15.90;38.80;;;;;;4967291;28;19910;-94
2021/04/23 12:49:39;;;;;;;;;;;15.90;38.80;;;;;;4957860;28;19969;-96
2021/04/23 12:52:15;;;;;;;;;;;16.00;38.90;;;;;;4965429;28;19910;-93
2021/04/23 12:54:41;;;;;;;;;;;16.10;38.90;;;;;;4967260;28;19960;-94
2021/04/23 12:57:08;;;;;;;;;;;15.90;38.00;;;;;;4963591;28;20346;-96
2021/04/23 12:59:34;;;;;;;;;;;16.10;38.60;;;;;;4961866;28;19954;-95
2021/04/23 13:01:59;;;;;;;;;;;16.40;38.60;;;;;;4955006;28;19945;-95
2021/04/23 13:04:25;;;;;;;;;;;16.60;38.50;;;;;;4957901;28;19911;-92
2021/04/23 13:06:50;;;;;;;;;;;16.50;38.30;;;;;;4957884;28;20009;-93
2021/04/23 13:09:16;;;;;;;;;;;16.30;38.40;;;;;;4961986;28;19910;-94
2021/04/23 13:11:41;;;;;;;;;;;16.30;38.70;;;;;;4959954;28;19914;-95
2021/04/23 13:14:15;;;;;;;;;;;16.20;38.70;;;;;;4962430;28;19911;-96
2021/04/23 13:16:57;;;;;;;;;;;16.30;39.10;;;;;;4958277;28;20345;-94
2021/04/23 13:19:35;;;;;;;;;;;16.40;38.90;;;;;;4960550;28;19924;-96
2021/04/23 13:22:17;;;;;;;;;;;16.50;38.40;;;;;;4955704;28;19911;-93
2021/04/23 13:24:42;;;;;;;;;;;16.40;38.00;;;;;;4947729;28;19910;-94
2021/04/23 13:27:26;;;;;;;;;;;16.50;38.10;;;;;;4938969;28;19918;-91
2021/04/23 13:29:52;;;;;;;;;;;16.80;38.30;;;;;;4945575;28;19926;-93
2021/04/23 13:32:17;;;;;;;;;;;17.00;37.60;;;;;;4956776;28;20360;-95
2021/04/23 13:34:56;;;;;;;;;;;17.10;37.60;;;;;;4961596;28;19930;-94
2021/04/23 13:37:32;;;;;;;;;;;17.40;37.60;;;;;;4949052;28;19978;-93
2021/04/23 13:40:01;;;;;;;;;;;17.70;36.90;;;;;;4961867;28;19914;-94
2021/04/23 13:42:26;;;;;;;;;;;17.70;36.80;;;;;;4961505;28;19921;-93
2021/04/23 13:44:52;;;;;;;;;;;17.70;37.50;;;;;;4962421;28;19911;-96
2021/04/23 13:47:17;;;;;;;;;;;17.30;36.20;;;;;;4953971;28;19911;-95
2021/04/23 13:49:43;;;;;;;;;;;17.10;36.60;;;;;;4951791;28;20020;-95
2021/04/23 13:52:13;;;;;;;;;;;17.00;37.20;;;;;;4942709;28;20285;-93
2021/04/23 13:54:38;;;;;;;;;;;17.00;37.20;;;;;;4948024;28;19920;-96
2021/04/23 13:57:11;;;;;;;;;;;16.90;37.00;;;;;;4954109;28;19935;-96
2021/04/23 13:59:37;;;;;;;;;;;16.80;36.50;;;;;;4961091;28;19929;-95
2021/04/23 14:02:05;;;;;;;;;;;16.50;37.20;;;;;;4955469;28;20120;-93
2021/04/23 14:04:32;;;;;;;;;;;16.70;37.20;;;;;;4959692;28;20065;-89
2021/04/23 14:06:59;;;;;;;;;;;16.70;37.00;;;;;;4961183;28;19921;-91
2021/04/23 14:09:26;;;;;;;;;;;17.00;36.80;;;;;;4961494;28;20416;-93
2021/04/23 14:11:54;;;;;;;;;;;17.00;36.80;;;;;;4961002;28;19953;-93
2021/04/23 14:14:21;;;;;;;;;;;17.00;37.20;;;;;;4966589;28;19930;-92
2021/04/23 14:16:49;;;;;;;;;;;16.80;36.90;;;;;;4954122;28;19924;-92
2021/04/23 14:19:14;;;;;;;;;;;16.60;37.70;;;;;;4953935;28;19957;-92
2021/04/23 14:21:41;;;;;;;;;;;16.60;37.80;;;;;;4939143;28;19915;-94
2021/04/23 14:24:08;;;;;;;;;;;16.70;38.10;;;;;;4954655;28;19906;-93
2021/04/23 14:26:33;;;;;;;;;;;16.70;38.10;;;;;;4958638;28;20274;-93
2021/04/23 14:28:59;;;;;;;;;;;16.50;37.60;;;;;;4958226;28;20023;-93
2021/04/23 14:31:25;;;;;;;;;;;16.10;37.60;;;;;;4962960;28;19933;-93
2021/04/23 14:33:50;;;;;;;;;;;16.10;38.50;;;;;;4956283;28;19914;-92
2021/04/23 14:36:17;;;;;;;;;;;16.00;38.70;;;;;;4955806;28;19929;-93
2021/04/23 14:38:42;;;;;;;;;;;15.80;39.10;;;;;;4954952;28;19910;-95
2021/04/23 14:41:08;;;;;;;;;;;15.80;39.40;;;;;;4970285;28;20335;-91
2021/04/23 14:43:34;;;;;;;;;;;15.80;38.90;;;;;;4957790;28;19953;-95
2021/04/23 14:45:59;;;;;;;;;;;15.80;39.20;;;;;;4951106;28;19910;-96
2021/04/23 14:48:25;;;;;;;;;;;16.10;39.30;;;;;;4956024;28;19921;-94
2021/04/23 14:50:52;;;;;;;;;;;16.00;37.90;;;;;;4963066;28;19929;-94
2021/04/23 14:53:18;;;;;;;;;;;15.90;38.60;;;;;;4957669;28;19906;-93
2021/04/23 14:55:44;;;;;;;;;;;16.10;38.80;;;;;;4952452;28;20329;-94
2021/04/23 14:58:10;;;;;;;;;;;16.30;38.70;;;;;;4953198;28;19929;-95
2021/04/23 15:00:36;;;;;;;;;;;16.50;38.50;;;;;;4951815;28;19911;-89
2021/04/23 15:03:02;;;;;;;;;;;16.60;38.30;;;;;;4951506;29;19914;-92
2021/04/23 15:05:27;;;;;;;;;;;16.80;38.30;;;;;;4954421;28;20337;-94
2021/04/23 15:07:53;;;;;;;;;;;16.90;38.20;;;;;;4949729;28;19918;-96
2021/04/23 15:10:19;;;;;;;;;;;17.00;38.00;;;;;;4959692;28;19915;-92
2021/04/23 15:12:46;;;;;;;;;;;17.10;38.20;;;;;;4959272;28;19969;-94
2021/04/23 15:15:12;;;;;;;;;;;17.00;37.80;;;;;;4949957;28;19930;-94
2021/04/23 15:17:38;;;;;;;;;;;16.90;38.10;;;;;;4953325;28;19915;-95
2021/04/23 15:20:05;;;;;;;;;;;16.50;37.70;;;;;;4950949;28;19927;-93
2021/04/23 15:22:31;;;;;;;;;;;16.10;38.30;;;;;;4950579;28;19911;-95
2021/04/23 15:24:57;;;;;;;;;;;15.80;39.10;;;;;;4955391;28;20025;-94
2021/04/23 15:27:23;;;;;;;;;;;15.80;39.60;;;;;;4946500;28;19958;-95
2021/04/23 15:29:49;;;;;;;;;;;15.60;39.40;;;;;;4955116;28;19973;-96
2021/04/23 15:32:14;;;;;;;;;;;15.60;39.80;;;;;;4958678;28;20336;-95
2021/04/23 15:34:41;;;;;;;;;;;15.60;39.80;;;;;;4958425;28;20328;-95
2021/04/23 15:37:07;;;;;;;;;;;15.60;39.80;;;;;;5253455;23;20323;-96
2021/04/23 15:39:32;;;;;;;;;;;15.50;39.70;;;;;;4945610;29;19922;-96
2021/04/23 15:41:58;;;;;;;;;;;15.40;39.90;;;;;;4946203;29;19918;-95
2021/04/23 15:44:23;;;;;;;;;;;15.30;40.10;;;;;;4947002;29;19923;-96
2021/04/23 15:46:48;;;;;;;;;;;15.40;40.30;;;;;;4931385;28;19911;-96
2021/04/23 15:49:14;;;;;;;;;;;15.50;40.20;;;;;;4908415;29;20267;-93
2021/04/23 15:51:40;;;;;;;;;;;15.40;40.10;;;;;;4924981;29;19919;-95
2021/04/23 15:54:06;;;;;;;;;;;15.30;40.00;;;;;;4922032;29;20177;-96
2021/04/23 15:56:31;;;;;;;;;;;15.20;40.20;;;;;;4923681;29;19917;-92